This is the latest recevied weather packets stored in our database for station/object AD7ZD. If no packets are shown the sender has not sent any weather packets the latest 10 day(s).
| Time | Temp. | Humidity | Pressure | Rain* | Wind** | Luminosity | Snow |
|---|---|---|---|---|---|---|---|
| 1777761934 | 21.67° C | 25% | 1011.1 hPa | 0 mm | - | 146 W/m² | - |
| 1777761631 | 21.67° C | 25% | 1011 hPa | 0 mm | - | 172 W/m² | - |
| 1777761329 | 22.22° C | 24% | 1011.1 hPa | 0 mm | - | 232 W/m² | - |
| 1777761027 | 21.67° C | 25% | 1011.4 hPa | 0 mm | - | 303 W/m² | - |
| 1777760724 | 21.11° C | 27% | 1011.6 hPa | 0 mm | - | 217 W/m² | - |
| 1777760420 | 21.11° C | 25% | 1011.8 hPa | 0 mm | - | 158 W/m² | - |
| 1777760116 | 20° C | 29% | 1011.9 hPa | 0 mm | - | 139 W/m² | - |
| 1777759814 | 20° C | 31% | 1012.1 hPa | 0 mm | - | 133 W/m² | - |
| 1777759509 | 19.44° C | 33% | 1012.1 hPa | 0 mm | - | 143 W/m² | - |
| 1777759206 | 18.89° C | 34% | 1011.6 hPa | 0 mm | - | 169 W/m² | - |
| 1777758904 | 22.22° C | 24% | 1011.9 hPa | 0 mm | - | 196 W/m² | - |
| 1777758600 | 21.67° C | 25% | 1011.8 hPa | 0 mm | - | 223 W/m² | - |
| 1777758297 | 22.22° C | 23% | 1011.8 hPa | 0 mm | - | 232 W/m² | - |
| 1777757994 | 22.22° C | 23% | 1011.8 hPa | 0 mm | - | 204 W/m² | - |
| 1777757691 | 22.22° C | 23% | 1011.7 hPa | 0 mm | - | 202 W/m² | - |
| 1777757389 | 22.22° C | 23% | 1011.7 hPa | 0 mm | - | 221 W/m² | - |
| 1777757088 | 22.22° C | 22% | 1011.6 hPa | 0 mm | - | 224 W/m² | - |
| 1777756785 | 21.67° C | 24% | 1011.6 hPa | 0 mm | - | 225 W/m² | - |
| 1777756480 | 21.67° C | 26% | 1011.7 hPa | 0 mm | - | 175 W/m² | - |
| 1777756178 | 22.78° C | 21% | 1011.8 hPa | 0 mm | - | 133 W/m² | - |
| 1777755874 | 22.78° C | 21% | 1011.3 hPa | 0 mm | - | 137 W/m² | - |
| 1777755572 | 23.33° C | 21% | 1011.6 hPa | 0 mm | - | 172 W/m² | - |
| 1777755268 | 23.33° C | 21% | 1011.6 hPa | 0 mm | - | 221 W/m² | - |
| 1777754965 | 22.78° C | 21% | 1011.7 hPa | 0 mm | - | 267 W/m² | - |
| 1777754662 | 23.33° C | 21% | 1011.7 hPa | 0 mm | - | 263 W/m² | - |
* Rain latest hour (hover to see other rain measurements)
** Current wind speed in m/s (hover to see current wind gust speed)